METAR Data

Data at: 0737 UTC 28 Sep 2022

METAR for:KWVL (Waterville/Lafleur A, ME, US)
Text:KWVL 280703Z AUTO 00000KT 1/4SM FG OVC001 09/09 A2985 RMK AO2
Temperature: 9.0°C ( 48°F)
Dewpoint: 9.0°C ( 48°F) [RH = 100%]
Pressure (altimeter):29.85 inches Hg (1010.9 mb)
Winds:calm
Visibility: 0.25 sm ( 0.40 km)
Ceiling:100 feet AGL
Clouds: overcast cloud deck at 100 feet AGL
Weather:FG (fog)
QC Flag:automated observation with no human augmentation